Wednesday, June 20, 2018, 5:17 PM EDT
Back to Local

KLEB, Lebanon Municipal Airport

Location: Lebanon, NH, United States Lat: 43.633
Local Time: 5:17 PM EDT (21:17 GMT) Lon: -72.3
Time Zone: US/Eastern Elev: 597 ft

Show me the last for .
Show Decoded

2018-06-20 16:53 METAR KLEB 202053Z 25006KT 10SM CLR 26/09 A2977 RMK AO2 SLP075 T02560094 56008 =
2018-06-20 15:53 METAR KLEB 201953Z 29007KT 10SM CLR 27/07 A2978 RMK AO2 SLP078 T02670072 =
2018-06-20 14:53 METAR KLEB 201853Z 23008KT 10SM CLR 27/08 A2978 RMK AO2 SLP078 T02670083 =
2018-06-20 13:53 METAR KLEB 201753Z 25006KT 10SM CLR 27/08 A2980 RMK AO2 SLP082 T02670083 10267
                 20133 56022 =
2018-06-20 12:53 METAR KLEB 201653Z 00000KT 10SM CLR 25/10 A2981 RMK AO2 SLP088 T02500100 =
2018-06-20 11:53 METAR KLEB 201553Z 20009KT 10SM CLR 24/09 A2984 RMK AO2 SLP098 T02440089 =
2018-06-20 10:53 METAR KLEB 201453Z 17005KT 10SM CLR 23/11 A2986 RMK AO2 SLP106 T02280106 58023 =
2018-06-20 09:53 METAR KLEB 201353Z 00000KT 10SM CLR 19/11 A2989 RMK AO2 SLP114 T01940111 =
2018-06-20 08:53 METAR KLEB 201253Z 00000KT 10SM CLR 16/10 A2991 RMK AO2 SLP121 T01610100 =
2018-06-20 07:53 METAR KLEB 201153Z 00000KT 10SM FEW001 13/09 A2993 RMK AO2 SLP129 T01330094
                 10133 20078 50004 =
2018-06-20 07:00 METAR KLEB 201100Z 00000KT 1SM BR VV001 11/09 A2994 RMK AO2 T01060089 =
2018-06-20 06:53 METAR KLEB 201053Z 00000KT 3/4SM BR VV001 11/09 A2993 RMK AO2 SLP131 T01060089 =
2018-06-20 06:16 METAR KLEB 201016Z 00000KT 3/4SM BR OVC001 10/08 A2992 RMK AO2 T01000083 =
2018-06-20 06:00 METAR KLEB 201000Z 00000KT 1SM BR OVC001 10/08 A2992 RMK AO2 T01000078 =
2018-06-20 05:53 METAR KLEB 200953Z 00000KT 3/4SM BR OVC001 09/07 A2992 RMK AO2 SLP125 T00940072
                 =
2018-06-20 05:00 METAR KLEB 200900Z AUTO 00000KT 10SM BKN001 08/06 A2992 RMK AO2 T00830061 =
2018-06-20 04:53 METAR KLEB 200853Z AUTO 00000KT 10SM SCT001 08/06 A2992 RMK AO2 SLP126 T00780056
                 53003 =
2018-06-20 04:06 METAR KLEB 200806Z AUTO 00000KT 10SM FEW001 09/07 A2991 RMK AO2 T00890067 =
2018-06-20 03:53 METAR KLEB 200753Z AUTO 05005KT 10SM CLR 09/07 A2991 RMK AO2 SLP123 T00890067 =
2018-06-20 02:53 METAR KLEB 200653Z AUTO 16004KT 10SM CLR 09/07 A2992 RMK AO2 SLP125 T00940072 =
2018-06-20 01:53 METAR KLEB 200553Z AUTO 00000KT 10SM CLR 10/08 A2991 RMK AO2 SLP124 T01000078
                 10222 20094 58001 =
2018-06-20 00:53 METAR KLEB 200453Z AUTO 00000KT 10SM CLR 11/08 A2992 RMK AO2 SLP124 T01110083
                 402500111 =
2018-06-19 23:53 METAR KLEB 200353Z AUTO 00000KT 10SM CLR 12/09 A2992 RMK AO2 SLP126 T01170089 =
2018-06-19 22:53 METAR KLEB 200253Z AUTO 00000KT 10SM CLR 12/09 A2991 RMK AO2 SLP124 T01220089
                 51015 =
2018-06-19 21:53 METAR KLEB 200153Z 17006KT 10SM CLR 14/09 A2991 RMK AO2 SLP122 T01440089 =
2018-06-19 20:53 METAR KLEB 200053Z 31004KT 10SM CLR 20/08 A2989 RMK AO2 SLP112 T02000083 =
2018-06-19 19:53 METAR KLEB 192353Z 35007KT 10SM CLR 22/08 A2987 RMK AO2 SLP105 T02220078 10250
                 20222 53014 =
2018-06-19 18:53 METAR KLEB 192253Z 36010G16KT 10SM CLR 23/08 A2985 RMK AO2 SLP100 T02330078 =
2018-06-19 17:53 METAR KLEB 192153Z 33010KT 10SM CLR 24/08 A2984 RMK AO2 SLP093 T02440083 =

Support USWX by starting your Amazon purchase here.